Time;durP1;ratioP1;P1;durP2;ratioP2;P2;SDS_P1;SDS_P2;PMS_P1;PMS_P2;Temp;Humidity;BMP_temperature;BMP_pressure;BME280_temperature;BME280_humidity;BME280_pressure;Samples;Min_cycle;Max_cycle;Signal;HPM_P1;HPM_P2
2021/05/27 00:02:02;;;;;;;4.60;2.40;;;;;;;14.28;54.83;99627.84;6185279;23;20023;-82
2021/05/27 00:04:28;;;;;;;9.98;3.00;;;;;;;14.27;55.17;99639.59;6186130;23;20102;-83
2021/05/27 00:06:53;;;;;;;6.95;2.90;;;;;;;14.27;55.42;99644.13;6186086;23;20017;-83
2021/05/27 00:09:19;;;;;;;7.15;2.88;;;;;;;14.24;55.11;99642.56;6163458;23;20017;-83
2021/05/27 00:11:45;;;;;;;7.05;3.00;;;;;;;14.21;55.31;99640.13;6139193;23;20063;-83
2021/05/27 00:14:11;;;;;;;6.22;2.85;;;;;;;14.23;55.34;99646.25;6188689;23;20021;-84
2021/05/27 00:16:37;;;;;;;10.18;3.33;;;;;;;14.28;55.18;99646.66;6189007;23;20017;-84
2021/05/27 00:19:03;;;;;;;11.15;3.67;;;;;;;14.09;55.11;99633.19;6186236;23;20017;-83
2021/05/27 00:21:29;;;;;;;7.25;3.33;;;;;;;14.12;55.70;99648.22;6185449;23;20021;-84
2021/05/27 00:23:54;;;;;;;8.77;3.65;;;;;;;14.19;55.32;99652.88;6185736;23;20079;-84
2021/05/27 00:26:20;;;;;;;10.90;3.60;;;;;;;14.18;55.31;99648.50;6161235;23;20096;-83
2021/05/27 00:28:49;;;;;;;8.33;3.57;;;;;;;14.26;55.37;99656.72;6161886;23;20021;-84
2021/05/27 00:31:14;;;;;;;8.52;3.50;;;;;;;14.31;54.87;99662.53;6185754;23;20480;-84
2021/05/27 00:33:40;;;;;;;5.97;3.90;;;;;;;14.28;55.32;99660.09;6186179;23;20028;-86
2021/05/27 00:36:08;;;;;;;8.32;4.00;;;;;;;14.23;55.09;99659.69;6136438;23;20079;-83
2021/05/27 00:38:34;;;;;;;4.72;3.25;;;;;;;14.20;55.24;99669.88;6161488;23;20027;-84
2021/05/27 00:40:59;;;;;;;6.75;3.65;;;;;;;14.16;55.44;99663.91;6186510;23;20457;-82
2021/05/27 00:43:26;;;;;;;12.40;3.88;;;;;;;14.07;55.94;99649.47;6175512;23;20028;-80
2021/05/27 00:45:51;;;;;;;5.00;3.72;;;;;;;14.15;56.03;99654.16;6187522;23;20053;-83
2021/05/27 00:51:02;;;;;;;12.68;4.78;;;;;;;14.20;55.59;99661.81;6163771;23;20055;-84
2021/05/27 00:53:28;;;;;;;24.10;4.43;;;;;;;14.22;55.67;99654.47;6187943;23;20028;-84
2021/05/27 00:55:55;;;;;;;8.13;3.92;;;;;;;14.29;55.48;99656.47;6188204;23;20485;-84
2021/05/27 00:58:21;;;;;;;8.10;4.10;;;;;;;14.28;55.58;99659.28;6185741;23;20063;-83
2021/05/27 01:00:47;;;;;;;10.25;4.20;;;;;;;14.21;56.00;99658.97;6136053;23;20020;-84
2021/05/27 01:03:13;;;;;;;10.20;4.18;;;;;;;14.22;55.84;99651.78;6185599;23;20013;-83
2021/05/27 01:05:40;;;;;;;10.35;4.43;;;;;;;14.27;55.61;99657.56;6186875;23;20017;-83
2021/05/27 01:08:06;;;;;;;11.15;3.92;;;;;;;14.32;55.67;99656.16;6185614;23;20021;-82
2021/05/27 01:10:34;;;;;;;6.05;4.00;;;;;;;14.36;55.72;99661.25;6161147;23;20044;-82
2021/05/27 01:13:00;;;;;;;8.65;3.80;;;;;;;14.39;55.70;99661.84;6186576;23;20445;-84
2021/05/27 01:15:34;;;;;;;8.35;3.80;;;;;;;14.32;55.52;99658.84;6160273;23;20452;-82
2021/05/27 01:18:09;;;;;;;6.05;4.18;;;;;;;14.36;55.70;99655.88;6162070;23;20017;-80
2021/05/27 01:20:36;;;;;;;9.82;3.70;;;;;;;14.39;55.84;99669.91;6186619;23;20457;-81
2021/05/27 01:23:05;;;;;;;5.43;3.65;;;;;;;14.41;55.65;99659.88;6185402;23;20024;-82
2021/05/27 01:25:32;;;;;;;10.18;4.03;;;;;;;14.43;55.63;99657.88;6186838;23;20023;-83
2021/05/27 01:27:58;;;;;;;7.15;3.70;;;;;;;14.52;55.47;99662.47;6184983;23;20472;-82
2021/05/27 01:30:24;;;;;;;6.82;3.78;;;;;;;14.57;55.18;99664.72;6135526;23;20368;-82
2021/05/27 01:32:51;;;;;;;11.18;3.60;;;;;;;14.51;55.49;99659.91;6135721;23;20017;-81
2021/05/27 01:35:21;;;;;;;8.40;3.92;;;;;;;14.50;55.34;99682.41;6184617;23;20017;-82
2021/05/27 01:37:47;;;;;;;9.93;4.53;;;;;;;14.53;55.47;99669.53;6137682;23;20031;-82
2021/05/27 01:40:14;;;;;;;9.30;4.10;;;;;;;14.54;55.42;99687.38;6189482;23;20029;-83
2021/05/27 01:42:40;;;;;;;9.93;3.65;;;;;;;14.56;55.75;99684.56;6199633;23;20047;-83
2021/05/27 01:45:08;;;;;;;6.68;3.55;;;;;;;14.58;55.50;99685.25;6191065;23;20013;-83
2021/05/27 01:47:34;;;;;;;10.82;4.25;;;;;;;14.57;55.54;99680.88;6162761;23;20017;-83
2021/05/27 01:50:01;;;;;;;8.60;3.63;;;;;;;14.64;55.38;99678.47;6161798;23;20524;-82
2021/05/27 01:52:27;;;;;;;7.72;3.60;;;;;;;14.59;55.72;99673.50;6187261;23;20111;-82
2021/05/27 01:54:53;;;;;;;4.68;3.47;;;;;;;14.58;55.84;99693.31;6111776;23;20021;-81
2021/05/27 01:57:19;;;;;;;13.20;3.72;;;;;;;14.58;55.99;99687.94;6184770;23;20024;-82
2021/05/27 01:59:45;;;;;;;8.60;3.53;;;;;;;14.60;56.21;99688.66;6185645;23;20052;-84
2021/05/27 02:02:14;;;;;;;11.00;3.67;;;;;;;14.63;56.01;99696.47;6136318;23;20075;-83
2021/05/27 02:04:42;;;;;;;7.53;3.60;;;;;;;14.65;56.25;99694.47;6090285;23;20067;-84
2021/05/27 02:07:13;;;;;;;11.18;3.30;;;;;;;14.57;56.39;99703.25;6136258;23;20017;-83
2021/05/27 02:09:41;;;;;;;10.80;3.63;;;;;;;14.61;56.45;99701.13;6160437;23;20044;-83
2021/05/27 02:12:09;;;;;;;8.07;3.42;;;;;;;14.66;56.34;99704.22;6136129;23;20457;-82
2021/05/27 02:14:37;;;;;;;5.72;3.10;;;;;;;14.67;56.46;99708.66;6184352;23;20017;-82
2021/05/27 02:17:02;;;;;;;6.68;3.65;;;;;;;14.63;56.64;99701.84;6086582;23;20128;-82
2021/05/27 02:19:28;;;;;;;5.10;2.90;;;;;;;14.69;57.07;99712.03;6184068;23;20031;-80
2021/05/27 02:21:54;;;;;;;6.20;3.40;;;;;;;14.68;56.80;99710.34;6185980;23;20053;-79
2021/05/27 02:24:34;;;;;;;10.68;3.40;;;;;;;14.81;56.65;99710.88;6140655;23;20351;-83
2021/05/27 02:27:00;;;;;;;10.52;4.40;;;;;;;14.84;56.75;99706.22;6112082;23;20021;-84
2021/05/27 02:29:26;;;;;;;12.70;4.43;;;;;;;14.81;56.76;99710.03;6160579;23;20426;-85
2021/05/27 02:31:56;;;;;;;11.80;4.13;;;;;;;14.87;56.62;99712.19;6186383;23;20031;-91
2021/05/27 02:34:23;;;;;;;8.48;4.10;;;;;;;14.91;56.99;99707.38;6135868;23;20115;-87
2021/05/27 02:36:51;;;;;;;10.82;4.70;;;;;;;15.01;56.72;99711.78;6184403;23;20077;-85
2021/05/27 02:39:19;;;;;;;8.07;4.55;;;;;;;15.15;56.37;99726.63;6135267;23;20031;-84
2021/05/27 02:41:51;;;;;;;8.23;4.03;;;;;;;15.34;56.27;99723.06;6184755;23;20102;-81
2021/05/27 02:44:22;;;;;;;10.27;4.28;;;;;;;15.41;55.76;99734.13;6184190;23;20020;-80
2021/05/27 02:46:51;;;;;;;18.08;4.07;;;;;;;15.45;56.17;99728.28;6136108;23;20021;-82
2021/05/27 02:49:17;;;;;;;8.32;4.47;;;;;;;15.57;55.57;99726.31;6185329;23;20392;-82
2021/05/27 02:51:44;;;;;;;17.58;4.55;;;;;;;15.64;55.74;99735.47;6159651;23;20032;-80
2021/05/27 02:54:11;;;;;;;7.40;4.22;;;;;;;15.75;55.29;99738.03;6159347;23;20017;-81
2021/05/27 02:56:39;;;;;;;8.25;3.80;;;;;;;15.79;55.23;99743.97;6184157;23;20029;-80
2021/05/27 02:59:06;;;;;;;11.10;4.10;;;;;;;15.77;55.24;99741.44;6136258;23;20021;-81
2021/05/27 03:01:33;;;;;;;14.73;4.88;;;;;;;15.88;54.93;99742.28;6135498;23;20512;-77
2021/05/27 03:03:59;;;;;;;13.35;3.90;;;;;;;15.78;55.33;99743.13;6184792;23;20020;-81
2021/05/27 03:06:26;;;;;;;10.45;3.88;;;;;;;15.85;55.41;99743.41;6113356;23;20120;-81
2021/05/27 03:08:54;;;;;;;12.52;4.18;;;;;;;16.00;54.87;99741.94;6160042;23;20017;-83
2021/05/27 03:11:21;;;;;;;14.63;4.00;;;;;;;16.02;54.74;99745.34;6160412;23;20044;-82
2021/05/27 03:13:49;;;;;;;;;;;;;;;16.14;54.66;99745.16;6193669;23;20049;-84
2021/05/27 03:16:17;;;;;;;10.68;4.20;;;;;;;16.18;54.82;99750.09;6160651;23;19926;-82
2021/05/27 03:18:43;;;;;;;15.82;5.13;;;;;;;16.33;54.27;99749.63;6134810;23;20420;-82
2021/05/27 03:21:09;;;;;;;11.35;4.18;;;;;;;16.46;54.32;99755.50;6184086;23;20021;-83
2021/05/27 03:23:38;;;;;;;14.80;3.58;;;;;;;16.61;53.70;99747.75;6134890;23;20074;-84
2021/05/27 03:26:04;;;;;;;9.18;3.40;;;;;;;16.81;53.30;99759.28;6185762;23;20068;-83
2021/05/27 03:28:31;;;;;;;11.48;3.47;;;;;;;16.87;52.49;99764.09;6159166;23;20044;-82
2021/05/27 03:31:06;;;;;;;12.32;3.20;;;;;;;16.71;52.49;99757.47;6161427;23;20079;-84
2021/05/27 03:33:36;;;;;;;7.43;3.50;;;;;;;16.70;52.77;99761.19;6183942;23;20034;-84
2021/05/27 03:36:03;;;;;;;11.23;3.08;;;;;;;16.79;52.98;99770.25;6135173;23;20021;-79
2021/05/27 03:38:31;;;;;;;8.70;3.17;;;;;;;16.90;52.59;99763.78;6184226;23;20013;-84
2021/05/27 03:40:57;;;;;;;28.77;3.88;;;;;;;17.15;52.61;99773.84;6184226;23;20248;-83
2021/05/27 03:43:24;;;;;;;12.73;3.00;;;;;;;17.36;52.06;99772.66;6184395;23;20056;-87
2021/05/27 03:45:51;;;;;;;8.88;3.28;;;;;;;17.54;51.60;99770.78;6183867;23;20464;-80
2021/05/27 03:48:19;;;;;;;7.45;2.90;;;;;;;17.68;51.22;99772.94;6183497;23;20043;-79
2021/05/27 03:50:46;;;;;;;13.65;3.53;;;;;;;17.72;50.73;99752.66;6111717;23;20104;-79
2021/05/27 03:53:18;;;;;;;11.90;3.10;;;;;;;17.87;50.44;99765.66;6163750;23;20067;-81
2021/05/27 03:55:53;;;;;;;14.73;3.25;;;;;;;17.83;50.28;99761.56;6117874;23;20035;-79
2021/05/27 04:01:04;;;;;;;9.80;2.83;;;;;;;17.83;49.50;99765.13;6140575;23;20025;-78
2021/05/27 04:09:14;;;;;;;11.60;2.50;;;;;;;18.23;49.09;99765.50;6164447;23;20453;-77
2021/05/27 04:11:40;;;;;;;5.97;2.85;;;;;;;18.35;49.27;99775.03;6160656;23;20021;-79
2021/05/27 04:14:06;;;;;;;11.73;3.63;;;;;;;18.46;48.86;99769.31;6112280;23;20048;-79
2021/05/27 04:16:32;;;;;;;14.23;3.47;;;;;;;18.46;48.47;99772.03;6136421;23;20056;-78
2021/05/27 04:18:58;;;;;;;11.55;3.40;;;;;;;18.50;48.42;99781.50;6185227;23;20017;-78
2021/05/27 04:21:24;;;;;;;15.00;3.00;;;;;;;18.35;48.50;99764.19;6183909;23;20021;-78
2021/05/27 04:23:50;;;;;;;11.00;3.03;;;;;;;18.40;48.65;99772.69;6185453;23;20024;-78
2021/05/27 04:26:16;;;;;;;9.18;3.00;;;;;;;18.37;48.25;99767.59;6160203;23;20021;-77
2021/05/27 04:28:44;;;;;;;6.15;2.78;;;;;;;18.54;48.50;99772.09;6160284;23;20087;-77
2021/05/27 04:31:14;;;;;;;11.45;2.65;;;;;;;18.77;47.89;99779.59;6159176;23;20349;-78
2021/05/27 04:33:43;;;;;;;7.55;2.58;;;;;;;18.89;47.18;99772.88;6136655;23;20017;-78
2021/05/27 04:36:13;;;;;;;7.10;2.83;;;;;;;18.99;47.20;99773.56;6160404;23;20021;-77
2021/05/27 04:38:39;;;;;;;17.17;2.30;;;;;;;19.17;47.02;99781.56;6160401;23;20075;-77
2021/05/27 04:41:05;;;;;;;23.38;2.50;;;;;;;19.34;46.61;99768.88;6135180;23;20020;-78
2021/05/27 04:43:31;;;;;;;6.43;2.70;;;;;;;19.48;46.01;99773.63;6111694;23;20024;-78
2021/05/27 04:45:57;;;;;;;13.52;2.60;;;;;;;19.53;46.47;99765.84;6111110;23;20337;-85
2021/05/27 04:48:23;;;;;;;8.10;2.08;;;;;;;19.54;45.53;99764.81;6135799;23;20067;-81
2021/05/27 04:50:50;;;;;;;11.00;2.22;;;;;;;19.71;45.90;99772.94;6160394;23;20028;-81
2021/05/27 04:53:20;;;;;;;6.68;2.47;;;;;;;19.86;45.16;99772.13;6159774;23;20024;-84
2021/05/27 04:55:46;;;;;;;7.25;2.60;;;;;;;20.04;44.42;99771.88;6184726;23;20031;-80
2021/05/27 04:58:12;;;;;;;8.80;2.88;;;;;;;20.07;44.16;99759.84;6111115;23;20017;-78
2021/05/27 05:00:39;;;;;;;11.52;2.90;;;;;;;20.11;43.74;99775.59;6134589;23;20103;-80
2021/05/27 05:03:05;;;;;;;11.73;3.10;;;;;;;20.06;44.04;99780.72;6159945;23;20021;-80
2021/05/27 05:05:32;;;;;;;21.90;3.63;;;;;;;20.06;43.55;99767.16;6135473;23;20488;-82
2021/05/27 05:07:59;;;;;;;7.80;2.80;;;;;;;20.25;43.64;99775.91;6184979;23;20021;-79
2021/05/27 05:10:25;;;;;;;11.70;3.25;;;;;;;20.26;43.02;99773.00;6135525;23;20346;-79
2021/05/27 05:12:52;;;;;;;7.57;2.70;;;;;;;20.30;42.85;99770.78;6185789;23;20075;-84
2021/05/27 05:15:22;;;;;;;12.00;2.95;;;;;;;20.33;42.79;99751.44;6183827;23;20457;-79
2021/05/27 05:17:53;;;;;;;9.38;2.05;;;;;;;20.41;42.44;99764.16;6161035;23;20020;-80
2021/05/27 05:20:20;;;;;;;11.05;2.22;;;;;;;20.63;42.04;99768.81;6184927;23;20025;-79
2021/05/27 05:22:46;;;;;;;15.15;2.60;;;;;;;20.78;40.36;99779.78;6160452;23;20047;-77
2021/05/27 05:25:12;;;;;;;13.10;2.78;;;;;;;20.45;39.39;99771.75;6184186;23;20520;-78
2021/05/27 05:27:38;;;;;;;20.83;3.10;;;;;;;20.33;40.83;99752.28;6109743;23;20016;-79
2021/05/27 05:30:05;;;;;;;15.45;2.30;;;;;;;20.48;40.44;99765.97;6134374;23;20291;-80
2021/05/27 05:32:31;;;;;;;12.15;2.10;;;;;;;20.58;40.03;99765.81;6185945;23;20401;-81
2021/05/27 05:35:00;;;;;;;10.43;1.95;;;;;;;20.79;40.13;99768.72;6136589;23;20021;-78
2021/05/27 05:37:27;;;;;;;3.10;1.67;;;;;;;20.91;39.83;99769.19;6188071;23;20033;-78
2021/05/27 05:39:54;;;;;;;5.32;2.15;;;;;;;20.90;39.05;99758.50;6147522;23;20025;-79
2021/05/27 05:42:20;;;;;;;8.30;2.38;;;;;;;20.98;39.52;99770.16;6167699;23;20091;-81
2021/05/27 05:44:46;;;;;;;17.63;3.05;;;;;;;20.88;40.15;99764.13;6184251;23;20047;-78
2021/05/27 05:47:11;;;;;;;9.82;2.17;;;;;;;20.97;39.66;99771.19;6136456;23;20470;-80
2021/05/27 05:49:38;;;;;;;9.25;2.13;;;;;;;21.09;38.68;99775.19;6188143;23;20059;-81
2021/05/27 05:52:04;;;;;;;8.30;1.90;;;;;;;21.09;38.86;99775.19;6136842;23;20071;-78
2021/05/27 05:54:32;;;;;;;6.60;1.70;;;;;;;21.21;38.70;99766.59;6187615;23;20017;-79
2021/05/27 05:56:58;;;;;;;29.70;2.65;;;;;;;21.19;39.08;99757.81;6086759;23;20013;-80
2021/05/27 05:59:25;;;;;;;16.33;1.83;;;;;;;21.25;38.66;99754.34;6159087;23;20017;-78
2021/05/27 06:01:51;;;;;;;5.28;1.92;;;;;;;21.18;38.59;99767.84;6159483;23;20088;-80
2021/05/27 06:04:18;;;;;;;21.67;2.70;;;;;;;21.35;38.57;99760.41;6111072;23;20049;-78
2021/05/27 06:06:54;;;;;;;11.93;1.80;;;;;;;21.51;38.05;99757.59;6138431;23;20017;-79
2021/05/27 06:09:20;;;;;;;4.10;1.80;;;;;;;21.68;37.56;99754.69;6134630;23;20025;-78
2021/05/27 06:11:46;;;;;;;3.83;1.58;;;;;;;21.67;37.26;99761.19;6184010;23;20503;-79
2021/05/27 06:14:12;;;;;;;13.90;1.70;;;;;;;21.72;37.29;99753.31;6110134;23;20487;-80
2021/05/27 06:16:38;;;;;;;15.15;1.58;;;;;;;21.70;37.55;99745.34;6137450;23;20021;-87
2021/05/27 06:19:04;;;;;;;8.75;1.48;;;;;;;21.78;36.36;99750.69;6136669;23;20017;-82
2021/05/27 06:21:56;;;;;;;10.38;1.40;;;;;;;21.75;36.49;99747.50;6182928;23;20413;-81
2021/05/27 06:24:49;;;;;;;8.18;1.60;;;;;;;21.46;37.14;99746.38;6182964;23;20017;-85
2021/05/27 06:27:14;;;;;;;12.50;2.17;;;;;;;21.43;37.54;99749.47;6113879;23;20053;-81
2021/05/27 06:29:41;;;;;;;12.20;2.55;;;;;;;21.57;37.34;99748.66;6184977;23;20036;-77
2021/05/27 06:32:07;;;;;;;10.15;1.70;;;;;;;21.78;37.04;99747.97;6158817;23;20489;-80
2021/05/27 06:34:33;;;;;;;9.05;1.92;;;;;;;22.05;36.42;99753.81;6134698;23;20027;-82
2021/05/27 06:37:06;;;;;;;5.47;1.20;;;;;;;22.10;35.58;99736.91;6109851;23;20017;-81
2021/05/27 06:39:32;;;;;;;10.15;1.27;;;;;;;22.26;35.63;99739.47;6160858;23;20108;-81
2021/05/27 06:41:58;;;;;;;4.82;1.48;;;;;;;22.42;35.75;99749.34;6184185;23;20476;-78
2021/05/27 06:44:24;;;;;;;12.35;2.25;;;;;;;22.61;35.52;99751.47;6110060;23;20021;-81
2021/05/27 06:46:50;;;;;;;3.45;1.33;;;;;;;22.61;35.38;99739.72;6185479;23;20047;-80
2021/05/27 06:49:16;;;;;;;5.68;1.10;;;;;;;22.64;34.80;99761.13;6183216;23;20059;-79
2021/05/27 06:51:44;;;;;;;5.50;1.10;;;;;;;22.46;34.88;99754.22;6159408;23;20017;-79
2021/05/27 06:54:10;;;;;;;;;;;;;;;22.25;34.58;99751.41;6112508;23;20076;-80
2021/05/27 06:56:37;;;;;;;9.00;1.83;;;;;;;22.00;35.50;99746.22;6185326;23;19913;-81
2021/05/27 06:59:03;;;;;;;5.40;1.20;;;;;;;22.25;35.71;99751.41;6109412;23;20483;-80
2021/05/27 07:01:29;;;;;;;2.17;0.90;;;;;;;22.24;35.27;99745.13;6110143;23;20111;-82
2021/05/27 07:03:55;;;;;;;6.50;1.35;;;;;;;22.26;35.05;99729.41;6184187;23;20021;-89
2021/05/27 07:06:21;;;;;;;4.40;1.60;;;;;;;22.60;35.01;99743.47;6109829;23;20017;-81
2021/05/27 07:08:50;;;;;;;8.43;1.52;;;;;;;22.63;35.00;99745.81;6183676;23;20100;-87
2021/05/27 07:11:16;;;;;;;6.82;1.10;;;;;;;22.65;34.44;99730.13;6136459;23;20025;-82
2021/05/27 07:13:42;;;;;;;7.30;1.60;;;;;;;22.66;34.41;99735.38;6184359;23;20043;-79
2021/05/27 07:16:10;;;;;;;11.48;1.40;;;;;;;22.58;34.40;99738.22;6186161;23;20025;-81
2021/05/27 07:18:41;;;;;;;3.08;1.02;;;;;;;22.79;34.25;99729.22;6141552;23;20071;-83
2021/05/27 07:21:07;;;;;;;8.25;1.45;;;;;;;22.76;33.85;99724.19;6112113;23;20020;-80
2021/05/27 07:23:33;;;;;;;6.65;1.00;;;;;;;22.60;33.93;99729.84;6161064;23;20107;-82
2021/05/27 07:26:03;;;;;;;4.18;1.00;;;;;;;22.84;33.78;99737.69;6189209;23;20021;-85
2021/05/27 07:28:29;;;;;;;8.55;1.30;;;;;;;23.15;33.80;99731.13;6112513;23;20017;-83
2021/05/27 07:30:55;;;;;;;5.53;1.35;;;;;;;23.31;33.33;99725.41;6110130;23;20056;-86
2021/05/27 07:33:21;;;;;;;13.13;1.88;;;;;;;23.42;32.88;99741.22;6184958;23;20530;-84
2021/05/27 07:35:47;;;;;;;3.38;1.15;;;;;;;23.41;32.83;99727.81;6184076;23;20021;-85
2021/05/27 07:38:13;;;;;;;34.10;2.83;;;;;;;23.46;32.49;99728.88;6182389;23;20108;-82
2021/05/27 07:40:39;;;;;;;2.38;1.20;;;;;;;23.40;32.52;99732.41;6159672;23;20021;-79
2021/05/27 07:43:05;;;;;;;4.13;1.38;;;;;;;23.56;32.86;99736.75;6184816;23;20028;-85
2021/05/27 07:45:31;;;;;;;7.60;1.42;;;;;;;23.66;32.78;99730.97;6109867;23;20020;-82
2021/05/27 07:47:58;;;;;;;5.47;1.05;;;;;;;23.51;32.93;99723.69;6110766;23;20483;-81
2021/05/27 07:50:24;;;;;;;4.13;1.10;;;;;;;23.66;32.85;99730.97;6134821;23;20088;-77
2021/05/27 07:52:51;;;;;;;13.05;1.48;;;;;;;23.84;32.47;99734.03;6183392;23;20047;-81
2021/05/27 07:55:17;;;;;;;6.45;1.00;;;;;;;23.60;31.65;99729.00;6134850;23;20473;-84
2021/05/27 07:57:46;;;;;;;7.68;0.95;;;;;;;23.40;32.38;99716.06;6112878;23;20028;-87
2021/05/27 08:00:13;;;;;;;2.85;0.98;;;;;;;23.50;32.59;99721.16;6135805;23;20021;-83
2021/05/27 08:02:42;;;;;;;4.13;1.05;;;;;;;23.86;32.28;99726.50;6177368;23;20021;-84
2021/05/27 08:05:20;;;;;;;16.20;2.35;;;;;;;24.04;32.23;99723.28;6161260;23;20047;-88
2021/05/27 08:07:46;;;;;;;9.23;1.50;;;;;;;23.95;32.21;99725.28;6116341;23;20028;-86
2021/05/27 08:10:12;;;;;;;9.30;1.30;;;;;;;24.12;31.96;99728.56;6159971;23;20476;-88
2021/05/27 08:12:40;;;;;;;9.30;1.27;;;;;;;24.29;31.65;99737.25;6161132;23;20021;-81
2021/05/27 08:15:06;;;;;;;1.52;0.90;;;;;;;24.48;30.92;99735.69;6158793;23;20023;-81
2021/05/27 08:17:32;;;;;;;6.80;1.33;;;;;;;24.22;31.57;99730.91;6159047;23;20044;-81
2021/05/27 08:19:59;;;;;;;4.82;1.45;;;;;;;24.23;31.89;99721.69;6185335;23;20079;-85
2021/05/27 08:22:27;;;;;;;3.75;1.80;;;;;;;24.09;31.67;99718.03;6135140;23;20035;-82
2021/05/27 08:24:54;;;;;;;5.22;0.95;;;;;;;24.38;31.93;99718.81;6112688;23;20326;-85
2021/05/27 08:27:20;;;;;;;15.73;1.20;;;;;;;24.61;31.30;99715.81;6185647;23;20022;-87
2021/05/27 08:29:47;;;;;;;3.20;0.90;;;;;;;24.69;30.83;99718.34;6160635;23;20028;-85
2021/05/27 08:32:12;;;;;;;9.32;1.70;;;;;;;24.93;31.08;99715.03;6186399;23;20021;-81
2021/05/27 08:34:39;;;;;;;11.90;1.30;;;;;;;25.12;30.82;99718.03;6134845;23;20028;-79
2021/05/27 08:37:05;;;;;;;9.05;1.55;;;;;;;24.79;30.40;99721.53;6188597;23;20029;-83
2021/05/27 08:39:31;;;;;;;3.20;0.98;;;;;;;24.94;30.28;99715.91;6144135;23;20469;-83
2021/05/27 08:41:57;;;;;;;3.75;1.10;;;;;;;24.96;31.04;99708.31;6186295;23;20017;-87
2021/05/27 08:44:23;;;;;;;5.90;1.10;;;;;;;25.25;30.73;99719.97;6112215;23;20013;-86
2021/05/27 08:46:49;;;;;;;5.68;1.10;;;;;;;25.21;29.99;99708.59;6138335;23;20524;-85
2021/05/27 08:49:16;;;;;;;3.47;1.33;;;;;;;25.18;30.30;99709.03;6185594;23;20472;-84
2021/05/27 08:51:42;;;;;;;3.55;0.98;;;;;;;25.46;29.72;99713.44;6188731;23;20021;-81
2021/05/27 08:54:08;;;;;;;7.00;1.38;;;;;;;25.53;30.18;99722.50;6189723;23;20017;-81
2021/05/27 08:56:35;;;;;;;13.77;1.73;;;;;;;25.55;30.24;99715.78;6185051;23;20069;-82
2021/05/27 08:59:00;;;;;;;5.07;1.10;;;;;;;25.47;29.20;99724.19;6134877;23;20021;-83
2021/05/27 09:01:26;;;;;;;32.83;1.83;;;;;;;25.54;29.89;99718.72;6184920;23;20494;-80
2021/05/27 09:03:54;;;;;;;18.63;1.45;;;;;;;25.77;29.10;99727.34;6186267;23;20091;-77
2021/05/27 09:06:20;;;;;;;9.32;1.25;;;;;;;25.75;29.18;99723.13;6137638;23;20017;-79
2021/05/27 09:08:46;;;;;;;3.00;1.00;;;;;;;25.63;28.55;99721.03;6135870;23;20457;-79
2021/05/27 09:11:15;;;;;;;22.88;2.35;;;;;;;25.97;28.89;99715.56;6110869;23;20021;-78
2021/05/27 09:13:50;;;;;;;7.88;1.58;;;;;;;25.84;29.74;99717.25;6134489;23;20068;-79
2021/05/27 09:16:16;;;;;;;8.32;1.40;;;;;;;25.61;29.14;99720.41;6186181;23;20021;-79
2021/05/27 09:18:43;;;;;;;7.80;1.60;;;;;;;25.52;29.88;99713.47;6135442;23;20024;-77
2021/05/27 09:21:10;;;;;;;3.63;1.08;;;;;;;25.43;29.74;99701.03;6184092;23;20024;-78
2021/05/27 09:23:38;;;;;;;2.38;0.80;;;;;;;25.61;29.02;99723.16;6184356;23;20108;-78
2021/05/27 09:26:06;;;;;;;2.72;0.77;;;;;;;25.75;29.29;99721.22;6135259;23;20075;-76
2021/05/27 09:28:32;;;;;;;10.30;1.25;;;;;;;26.41;29.06;99714.81;6159107;23;20135;-78
2021/05/27 09:31:11;;;;;;;11.27;1.15;;;;;;;26.56;28.41;99711.81;6134674;23;20568;-78
2021/05/27 09:33:44;;;;;;;4.45;1.00;;;;;;;26.87;27.96;99706.38;6134836;23;20024;-78
2021/05/27 09:36:17;;;;;;;9.50;1.45;;;;;;;26.74;27.15;99717.44;6135552;23;20033;-77
2021/05/27 09:38:52;;;;;;;5.85;1.50;;;;;;;26.76;27.71;99711.72;6112203;23;20048;-76
2021/05/27 09:41:28;;;;;;;1.85;0.80;;;;;;;26.67;27.84;99707.53;6135639;23;20479;-76
2021/05/27 09:43:56;;;;;;;9.30;1.00;;;;;;;26.95;27.42;99701.69;6111211;23;20020;-78
2021/05/27 09:46:23;;;;;;;7.90;1.00;;;;;;;27.31;27.20;99704.63;6110955;23;20021;-77
2021/05/27 09:49:05;;;;;;;4.82;1.00;;;;;;;27.66;26.71;99700.53;6184123;23;20021;-78
2021/05/27 09:51:31;;;;;;;3.88;0.95;;;;;;;27.67;26.37;99694.81;6184243;23;20103;-78
2021/05/27 09:53:57;;;;;;;5.95;0.90;;;;;;;28.23;26.71;99702.06;6110781;23;20020;-79
2021/05/27 09:56:33;;;;;;;6.07;1.05;;;;;;;28.39;26.00;99705.31;6183732;23;20020;-79
2021/05/27 09:58:59;;;;;;;7.90;0.80;;;;;;;28.60;26.33;99704.84;6159033;23;20024;-78
2021/05/27 10:01:25;;;;;;;10.10;1.15;;;;;;;28.53;25.38;99709.56;6185692;23;20382;-77
2021/05/27 10:03:51;;;;;;;6.88;0.95;;;;;;;28.28;24.95;99694.00;6185941;23;20102;-78
2021/05/27 10:06:17;;;;;;;3.80;0.90;;;;;;;28.71;24.63;99709.56;6159598;23;20052;-77
2021/05/27 10:08:53;;;;;;;3.58;1.30;;;;;;;29.20;24.75;99691.09;6134525;23;20063;-75
2021/05/27 10:11:20;;;;;;;3.45;0.75;;;;;;;29.67;23.96;99698.59;6158669;23;20480;-77
2021/05/27 10:13:46;;;;;;;7.45;1.65;;;;;;;29.65;23.48;99687.81;6134924;23;20071;-75
2021/05/27 10:16:16;;;;;;;5.35;0.85;;;;;;;29.72;23.64;99690.47;6134582;23;20025;-77
2021/05/27 10:18:43;;;;;;;3.63;0.70;;;;;;;29.98;23.24;99680.88;6134888;23;20060;-76
2021/05/27 10:21:09;;;;;;;7.15;0.80;;;;;;;30.46;22.85;99683.28;6185036;23;20021;-76
2021/05/27 10:23:36;;;;;;;2.45;0.90;;;;;;;30.63;22.82;99682.53;6110725;23;20112;-78
2021/05/27 10:26:02;;;;;;;5.85;0.77;;;;;;;30.58;22.23;99686.03;6183654;23;20116;-77
2021/05/27 10:28:28;;;;;;;4.97;1.00;;;;;;;30.88;22.38;99685.81;6185308;23;20057;-77
2021/05/27 10:30:54;;;;;;;5.90;0.68;;;;;;;30.91;22.22;99679.78;6183459;23;20421;-76
2021/05/27 10:33:20;;;;;;;1.52;0.70;;;;;;;31.40;22.39;99695.84;6183754;23;20108;-76
2021/05/27 10:35:57;;;;;;;7.15;0.95;;;;;;;32.04;21.83;99693.56;6109892;23;20087;-78
2021/05/27 10:38:49;;;;;;;8.95;1.35;;;;;;;31.73;22.25;99674.84;6159246;23;20327;-77
2021/05/27 10:41:42;;;;;;;11.05;1.17;;;;;;;31.52;21.32;99696.63;6134324;23;20472;-78
2021/05/27 10:44:15;;;;;;;5.90;1.00;;;;;;;31.23;21.63;99693.06;6120176;23;20013;-79
2021/05/27 10:46:44;;;;;;;4.03;0.88;;;;;;;31.71;21.57;99688.06;6114329;23;20021;-78
2021/05/27 10:49:11;;;;;;;7.70;0.90;;;;;;;32.05;21.21;99684.19;6189047;23;20024;-80
2021/05/27 10:51:44;;;;;;;4.47;0.63;;;;;;;32.64;21.35;99686.31;6134522;23;20021;-79
2021/05/27 10:54:15;;;;;;;4.68;0.90;;;;;;;33.07;20.44;99688.22;6162835;23;20116;-80
2021/05/27 10:56:45;;;;;;;3.50;0.80;;;;;;;33.10;20.68;99682.16;6135959;23;20020;-79
2021/05/27 10:59:12;;;;;;;4.20;0.85;;;;;;;33.47;20.70;99684.16;6185474;23;20017;-79
2021/05/27 11:01:40;;;;;;;4.13;1.08;;;;;;;33.90;20.32;99670.31;6184876;23;20492;-79
2021/05/27 11:04:28;;;;;;;4.47;0.90;;;;;;;33.99;19.96;99675.09;6160879;23;20047;-78
2021/05/27 11:07:12;;;;;;;4.10;0.90;;;;;;;32.62;20.42;99683.00;6184624;23;20484;-79
2021/05/27 11:09:38;;;;;;;12.13;1.50;;;;;;;32.51;20.58;99670.97;6159147;23;20461;-79
2021/05/27 11:12:07;;;;;;;13.32;1.23;;;;;;;32.31;20.66;99654.94;6182965;23;20024;-79
2021/05/27 11:14:41;;;;;;;6.47;0.70;;;;;;;32.58;20.21;99676.31;6184199;23;20081;-78
2021/05/27 11:17:08;;;;;;;6.65;1.10;;;;;;;33.07;20.14;99679.91;6135771;23;20021;-79
2021/05/27 11:22:28;;;;;;;2.88;0.80;;;;;;;33.77;18.95;99672.44;6161024;23;20017;-79
2021/05/27 11:27:51;;;;;;;2.45;0.70;;;;;;;34.41;18.43;99665.03;6161204;23;20021;-80
2021/05/27 11:30:18;;;;;;;7.88;1.33;;;;;;;34.74;19.00;99661.00;6135582;23;20025;-79
2021/05/27 11:32:48;;;;;;;6.75;1.13;;;;;;;35.33;18.07;99674.44;6159810;23;20020;-79
2021/05/27 11:35:14;;;;;;;6.78;1.25;;;;;;;34.29;18.75;99662.50;6135561;23;20020;-78
2021/05/27 11:37:41;;;;;;;5.90;1.05;;;;;;;34.32;19.15;99659.19;6135631;23;20025;-79
2021/05/27 11:40:08;;;;;;;4.70;0.80;;;;;;;35.13;18.14;99657.75;6111387;23;20020;-80
2021/05/27 11:42:37;;;;;;;5.40;0.70;;;;;;;35.27;17.99;99659.69;6111583;23;20021;-80
2021/05/27 11:45:06;;;;;;;5.30;0.82;;;;;;;35.18;17.81;99657.78;6136419;23;20017;-79
2021/05/27 11:47:32;;;;;;;;;;;;;;;35.89;18.07;99651.34;6111964;23;20071;-79
2021/05/27 11:50:02;;;;;;;10.45;0.65;;;;;;;36.42;17.49;99666.47;6184915;23;19927;-79
2021/05/27 11:52:28;;;;;;;11.40;1.00;;;;;;;35.12;18.06;99656.09;6160449;23;20017;-79